sensor_id;sensor_type;location;lat;lon;timestamp;P1;durP1;ratioP1;P2;durP2;ratioP2
26946;SDS011;14501;52.282;10.560;2023-11-21T00:00:18;5.03;;;3.30;;
26946;SDS011;14501;52.282;10.560;2023-11-21T00:02:45;5.40;;;3.13;;
26946;SDS011;14501;52.282;10.560;2023-11-21T00:05:11;8.60;;;3.70;;
26946;SDS011;14501;52.282;10.560;2023-11-21T00:07:39;4.32;;;2.95;;
26946;SDS011;14501;52.282;10.560;2023-11-21T00:10:05;9.25;;;3.53;;
26946;SDS011;14501;52.282;10.560;2023-11-21T00:12:31;6.53;;;3.45;;
26946;SDS011;14501;52.282;10.560;2023-11-21T00:14:58;6.13;;;3.20;;
26946;SDS011;14501;52.282;10.560;2023-11-21T00:17:24;8.88;;;3.35;;
26946;SDS011;14501;52.282;10.560;2023-11-21T00:19:49;6.03;;;3.00;;
26946;SDS011;14501;52.282;10.560;2023-11-21T00:22:17;7.30;;;3.22;;
26946;SDS011;14501;52.282;10.560;2023-11-21T00:24:43;8.10;;;3.65;;
26946;SDS011;14501;52.282;10.560;2023-11-21T00:27:09;6.05;;;3.05;;
26946;SDS011;14501;52.282;10.560;2023-11-21T00:29:34;6.68;;;3.72;;
26946;SDS011;14501;52.282;10.560;2023-11-21T00:32:00;5.65;;;3.40;;
26946;SDS011;14501;52.282;10.560;2023-11-21T00:34:26;9.07;;;4.38;;
26946;SDS011;14501;52.282;10.560;2023-11-21T00:36:52;7.45;;;3.70;;
26946;SDS011;14501;52.282;10.560;2023-11-21T00:39:17;8.63;;;3.95;;
26946;SDS011;14501;52.282;10.560;2023-11-21T00:41:43;6.78;;;3.03;;
26946;SDS011;14501;52.282;10.560;2023-11-21T00:44:10;6.05;;;3.17;;
26946;SDS011;14501;52.282;10.560;2023-11-21T00:46:36;7.97;;;3.85;;
26946;SDS011;14501;52.282;10.560;2023-11-21T00:49:01;11.52;;;4.32;;
26946;SDS011;14501;52.282;10.560;2023-11-21T00:51:29;8.95;;;4.65;;
26946;SDS011;14501;52.282;10.560;2023-11-21T00:53:55;8.52;;;4.03;;
26946;SDS011;14501;52.282;10.560;2023-11-21T00:56:20;8.80;;;3.90;;
26946;SDS011;14501;52.282;10.560;2023-11-21T00:58:46;8.85;;;3.85;;
26946;SDS011;14501;52.282;10.560;2023-11-21T01:01:15;11.88;;;4.28;;
26946;SDS011;14501;52.282;10.560;2023-11-21T01:03:41;5.40;;;3.28;;
26946;SDS011;14501;52.282;10.560;2023-11-21T01:06:06;7.03;;;3.75;;
26946;SDS011;14501;52.282;10.560;2023-11-21T01:08:33;7.75;;;4.15;;
26946;SDS011;14501;52.282;10.560;2023-11-21T01:10:59;11.52;;;4.88;;
26946;SDS011;14501;52.282;10.560;2023-11-21T01:13:25;10.73;;;4.57;;
26946;SDS011;14501;52.282;10.560;2023-11-21T01:15:54;10.40;;;4.32;;
26946;SDS011;14501;52.282;10.560;2023-11-21T01:18:21;11.93;;;4.28;;
26946;SDS011;14501;52.282;10.560;2023-11-21T01:20:46;10.70;;;4.22;;
26946;SDS011;14501;52.282;10.560;2023-11-21T01:23:15;10.65;;;5.10;;
26946;SDS011;14501;52.282;10.560;2023-11-21T01:25:41;6.80;;;3.55;;
26946;SDS011;14501;52.282;10.560;2023-11-21T01:28:06;8.93;;;4.65;;
26946;SDS011;14501;52.282;10.560;2023-11-21T01:30:32;8.93;;;4.63;;
26946;SDS011;14501;52.282;10.560;2023-11-21T01:32:58;10.90;;;4.38;;
26946;SDS011;14501;52.282;10.560;2023-11-21T01:35:24;9.93;;;4.32;;
26946;SDS011;14501;52.282;10.560;2023-11-21T01:37:50;14.73;;;5.53;;
26946;SDS011;14501;52.282;10.560;2023-11-21T01:40:15;12.05;;;4.93;;
26946;SDS011;14501;52.282;10.560;2023-11-21T01:42:41;7.80;;;4.28;;
26946;SDS011;14501;52.282;10.560;2023-11-21T01:45:12;8.35;;;4.68;;
26946;SDS011;14501;52.282;10.560;2023-11-21T01:47:38;9.25;;;4.07;;
26946;SDS011;14501;52.282;10.560;2023-11-21T01:50:06;9.13;;;4.53;;
26946;SDS011;14501;52.282;10.560;2023-11-21T01:52:33;10.23;;;5.05;;
26946;SDS011;14501;52.282;10.560;2023-11-21T01:55:00;9.68;;;4.70;;
26946;SDS011;14501;52.282;10.560;2023-11-21T01:57:26;10.30;;;4.63;;
26946;SDS011;14501;52.282;10.560;2023-11-21T01:59:52;11.15;;;5.13;;
26946;SDS011;14501;52.282;10.560;2023-11-21T02:02:19;7.88;;;4.57;;
26946;SDS011;14501;52.282;10.560;2023-11-21T02:04:45;10.48;;;5.05;;
26946;SDS011;14501;52.282;10.560;2023-11-21T02:07:11;8.88;;;4.78;;
26946;SDS011;14501;52.282;10.560;2023-11-21T02:09:37;14.90;;;4.95;;
26946;SDS011;14501;52.282;10.560;2023-11-21T02:12:03;12.88;;;5.78;;
26946;SDS011;14501;52.282;10.560;2023-11-21T02:14:30;10.93;;;4.90;;
26946;SDS011;14501;52.282;10.560;2023-11-21T02:16:56;9.95;;;5.45;;
26946;SDS011;14501;52.282;10.560;2023-11-21T02:19:22;9.90;;;5.40;;
26946;SDS011;14501;52.282;10.560;2023-11-21T02:21:53;9.25;;;4.57;;
26946;SDS011;14501;52.282;10.560;2023-11-21T02:24:20;9.43;;;5.22;;
26946;SDS011;14501;52.282;10.560;2023-11-21T02:26:47;15.68;;;6.03;;
26946;SDS011;14501;52.282;10.560;2023-11-21T02:29:13;14.77;;;5.78;;
26946;SDS011;14501;52.282;10.560;2023-11-21T02:31:42;12.38;;;5.00;;
26946;SDS011;14501;52.282;10.560;2023-11-21T02:34:16;9.75;;;5.72;;
26946;SDS011;14501;52.282;10.560;2023-11-21T02:36:43;12.82;;;5.18;;
26946;SDS011;14501;52.282;10.560;2023-11-21T02:39:12;14.43;;;6.07;;
26946;SDS011;14501;52.282;10.560;2023-11-21T02:41:38;14.95;;;6.18;;
26946;SDS011;14501;52.282;10.560;2023-11-21T02:44:04;13.77;;;6.35;;
26946;SDS011;14501;52.282;10.560;2023-11-21T02:46:33;12.25;;;5.88;;
26946;SDS011;14501;52.282;10.560;2023-11-21T02:49:00;12.82;;;5.95;;
26946;SDS011;14501;52.282;10.560;2023-11-21T02:51:29;12.30;;;6.30;;
26946;SDS011;14501;52.282;10.560;2023-11-21T02:53:55;12.27;;;5.75;;
26946;SDS011;14501;52.282;10.560;2023-11-21T02:56:25;10.73;;;5.30;;
26946;SDS011;14501;52.282;10.560;2023-11-21T02:58:51;12.32;;;6.10;;
26946;SDS011;14501;52.282;10.560;2023-11-21T03:01:17;12.38;;;5.57;;
26946;SDS011;14501;52.282;10.560;2023-11-21T03:03:43;11.23;;;5.47;;
26946;SDS011;14501;52.282;10.560;2023-11-21T03:06:09;13.98;;;5.72;;
26946;SDS011;14501;52.282;10.560;2023-11-21T03:08:35;13.25;;;5.88;;
26946;SDS011;14501;52.282;10.560;2023-11-21T03:11:01;13.18;;;5.70;;
26946;SDS011;14501;52.282;10.560;2023-11-21T03:13:28;11.27;;;5.70;;
26946;SDS011;14501;52.282;10.560;2023-11-21T03:15:54;13.43;;;5.80;;
26946;SDS011;14501;52.282;10.560;2023-11-21T03:18:20;14.63;;;5.55;;
26946;SDS011;14501;52.282;10.560;2023-11-21T03:20:47;10.95;;;6.30;;
26946;SDS011;14501;52.282;10.560;2023-11-21T03:23:13;11.52;;;5.57;;
26946;SDS011;14501;52.282;10.560;2023-11-21T03:25:38;11.30;;;5.55;;
26946;SDS011;14501;52.282;10.560;2023-11-21T03:28:04;12.93;;;6.35;;
26946;SDS011;14501;52.282;10.560;2023-11-21T03:30:29;13.70;;;5.90;;
26946;SDS011;14501;52.282;10.560;2023-11-21T03:32:55;11.48;;;5.57;;
26946;SDS011;14501;52.282;10.560;2023-11-21T03:35:21;16.40;;;6.75;;
26946;SDS011;14501;52.282;10.560;2023-11-21T03:37:47;9.98;;;5.32;;
26946;SDS011;14501;52.282;10.560;2023-11-21T03:40:13;12.77;;;6.38;;
26946;SDS011;14501;52.282;10.560;2023-11-21T03:42:39;8.95;;;5.60;;
26946;SDS011;14501;52.282;10.560;2023-11-21T03:45:08;13.38;;;5.93;;
26946;SDS011;14501;52.282;10.560;2023-11-21T03:47:34;12.63;;;5.97;;
26946;SDS011;14501;52.282;10.560;2023-11-21T03:49:59;13.15;;;6.57;;
26946;SDS011;14501;52.282;10.560;2023-11-21T03:52:25;12.68;;;5.93;;
26946;SDS011;14501;52.282;10.560;2023-11-21T03:54:53;13.50;;;6.15;;
26946;SDS011;14501;52.282;10.560;2023-11-21T03:57:20;12.52;;;5.68;;
26946;SDS011;14501;52.282;10.560;2023-11-21T03:59:46;15.18;;;7.10;;
26946;SDS011;14501;52.282;10.560;2023-11-21T04:02:11;14.57;;;6.40;;
26946;SDS011;14501;52.282;10.560;2023-11-21T04:04:37;18.52;;;6.32;;
26946;SDS011;14501;52.282;10.560;2023-11-21T04:07:02;17.17;;;6.82;;
26946;SDS011;14501;52.282;10.560;2023-11-21T04:09:29;18.08;;;6.72;;
26946;SDS011;14501;52.282;10.560;2023-11-21T04:11:54;12.10;;;6.05;;
26946;SDS011;14501;52.282;10.560;2023-11-21T04:14:20;16.60;;;6.45;;
26946;SDS011;14501;52.282;10.560;2023-11-21T04:16:46;17.60;;;6.78;;
26946;SDS011;14501;52.282;10.560;2023-11-21T04:19:11;16.85;;;6.88;;
26946;SDS011;14501;52.282;10.560;2023-11-21T04:21:40;12.18;;;6.30;;
26946;SDS011;14501;52.282;10.560;2023-11-21T04:24:06;13.18;;;6.57;;
26946;SDS011;14501;52.282;10.560;2023-11-21T04:26:32;11.38;;;6.00;;
26946;SDS011;14501;52.282;10.560;2023-11-21T04:28:58;15.45;;;7.07;;
26946;SDS011;14501;52.282;10.560;2023-11-21T04:31:24;16.30;;;6.70;;
26946;SDS011;14501;52.282;10.560;2023-11-21T04:33:49;15.45;;;6.43;;
26946;SDS011;14501;52.282;10.560;2023-11-21T04:36:15;15.98;;;7.07;;
26946;SDS011;14501;52.282;10.560;2023-11-21T04:38:40;14.40;;;7.43;;
26946;SDS011;14501;52.282;10.560;2023-11-21T04:41:06;13.85;;;6.80;;
26946;SDS011;14501;52.282;10.560;2023-11-21T04:43:32;15.38;;;7.60;;
26946;SDS011;14501;52.282;10.560;2023-11-21T04:45:57;15.85;;;6.28;;
26946;SDS011;14501;52.282;10.560;2023-11-21T04:48:23;14.02;;;6.78;;
26946;SDS011;14501;52.282;10.560;2023-11-21T04:50:49;16.88;;;7.13;;
26946;SDS011;14501;52.282;10.560;2023-11-21T04:53:14;17.45;;;7.70;;
26946;SDS011;14501;52.282;10.560;2023-11-21T04:55:40;18.38;;;7.47;;
26946;SDS011;14501;52.282;10.560;2023-11-21T04:58:06;16.90;;;7.15;;
26946;SDS011;14501;52.282;10.560;2023-11-21T05:00:33;14.63;;;6.43;;
26946;SDS011;14501;52.282;10.560;2023-11-21T05:02:58;14.10;;;7.07;;
26946;SDS011;14501;52.282;10.560;2023-11-21T05:05:26;13.57;;;7.43;;
26946;SDS011;14501;52.282;10.560;2023-11-21T05:07:52;15.35;;;6.65;;
26946;SDS011;14501;52.282;10.560;2023-11-21T05:10:18;18.75;;;6.72;;
26946;SDS011;14501;52.282;10.560;2023-11-21T05:12:44;12.82;;;7.18;;
26946;SDS011;14501;52.282;10.560;2023-11-21T05:15:10;13.38;;;6.55;;
26946;SDS011;14501;52.282;10.560;2023-11-21T05:17:39;14.10;;;7.55;;
26946;SDS011;14501;52.282;10.560;2023-11-21T05:20:13;19.77;;;7.55;;
26946;SDS011;14501;52.282;10.560;2023-11-21T05:22:42;15.25;;;6.93;;
26946;SDS011;14501;52.282;10.560;2023-11-21T05:25:08;16.52;;;6.68;;
26946;SDS011;14501;52.282;10.560;2023-11-21T05:27:36;13.77;;;7.30;;
26946;SDS011;14501;52.282;10.560;2023-11-21T05:30:02;11.63;;;6.15;;
26946;SDS011;14501;52.282;10.560;2023-11-21T05:32:30;18.45;;;7.47;;
26946;SDS011;14501;52.282;10.560;2023-11-21T05:34:56;17.08;;;7.13;;
26946;SDS011;14501;52.282;10.560;2023-11-21T05:37:22;21.65;;;7.82;;
26946;SDS011;14501;52.282;10.560;2023-11-21T05:39:48;18.00;;;7.68;;
26946;SDS011;14501;52.282;10.560;2023-11-21T05:42:14;11.88;;;6.20;;
26946;SDS011;14501;52.282;10.560;2023-11-21T05:44:43;15.85;;;7.78;;
26946;SDS011;14501;52.282;10.560;2023-11-21T05:47:09;12.88;;;6.18;;
26946;SDS011;14501;52.282;10.560;2023-11-21T05:49:34;12.73;;;7.32;;
26946;SDS011;14501;52.282;10.560;2023-11-21T05:52:00;11.35;;;5.32;;
26946;SDS011;14501;52.282;10.560;2023-11-21T05:54:26;15.00;;;6.30;;
26946;SDS011;14501;52.282;10.560;2023-11-21T05:56:51;14.38;;;6.20;;
26946;SDS011;14501;52.282;10.560;2023-11-21T05:59:17;12.40;;;6.15;;
26946;SDS011;14501;52.282;10.560;2023-11-21T06:01:43;11.13;;;6.13;;
26946;SDS011;14501;52.282;10.560;2023-11-21T06:04:11;10.38;;;5.03;;
26946;SDS011;14501;52.282;10.560;2023-11-21T06:06:37;8.18;;;4.80;;
26946;SDS011;14501;52.282;10.560;2023-11-21T06:09:03;8.57;;;3.65;;
26946;SDS011;14501;52.282;10.560;2023-11-21T06:11:30;9.20;;;3.85;;
26946;SDS011;14501;52.282;10.560;2023-11-21T06:13:56;5.93;;;3.35;;
26946;SDS011;14501;52.282;10.560;2023-11-21T06:16:22;5.50;;;2.78;;
26946;SDS011;14501;52.282;10.560;2023-11-21T06:18:49;3.95;;;2.75;;
26946;SDS011;14501;52.282;10.560;2023-11-21T06:21:14;3.75;;;2.58;;
26946;SDS011;14501;52.282;10.560;2023-11-21T06:23:41;2.95;;;1.45;;
26946;SDS011;14501;52.282;10.560;2023-11-21T06:26:07;3.80;;;1.70;;
26946;SDS011;14501;52.282;10.560;2023-11-21T06:28:34;3.78;;;2.42;;
26946;SDS011;14501;52.282;10.560;2023-11-21T06:31:01;3.75;;;2.85;;
26946;SDS011;14501;52.282;10.560;2023-11-21T06:33:30;3.00;;;2.38;;
26946;SDS011;14501;52.282;10.560;2023-11-21T06:35:56;4.57;;;2.13;;
26946;SDS011;14501;52.282;10.560;2023-11-21T06:38:22;3.20;;;1.98;;
26946;SDS011;14501;52.282;10.560;2023-11-21T06:40:47;4.00;;;2.10;;
26946;SDS011;14501;52.282;10.560;2023-11-21T06:43:13;3.55;;;2.47;;
26946;SDS011;14501;52.282;10.560;2023-11-21T06:45:39;3.58;;;2.55;;
26946;SDS011;14501;52.282;10.560;2023-11-21T06:48:05;4.78;;;2.70;;
26946;SDS011;14501;52.282;10.560;2023-11-21T06:50:30;4.47;;;2.60;;
26946;SDS011;14501;52.282;10.560;2023-11-21T06:52:56;7.72;;;3.40;;
26946;SDS011;14501;52.282;10.560;2023-11-21T06:55:21;10.82;;;4.43;;
26946;SDS011;14501;52.282;10.560;2023-11-21T06:57:47;7.28;;;4.35;;
26946;SDS011;14501;52.282;10.560;2023-11-21T07:00:13;8.65;;;4.50;;
26946;SDS011;14501;52.282;10.560;2023-11-21T07:02:42;8.18;;;4.70;;
26946;SDS011;14501;52.282;10.560;2023-11-21T07:05:08;8.27;;;4.85;;
26946;SDS011;14501;52.282;10.560;2023-11-21T07:07:34;11.10;;;4.85;;
26946;SDS011;14501;52.282;10.560;2023-11-21T07:10:00;7.75;;;4.70;;
26946;SDS011;14501;52.282;10.560;2023-11-21T07:12:28;10.13;;;4.35;;
26946;SDS011;14501;52.282;10.560;2023-11-21T07:14:56;8.48;;;5.05;;
26946;SDS011;14501;52.282;10.560;2023-11-21T07:17:22;12.73;;;5.40;;
26946;SDS011;14501;52.282;10.560;2023-11-21T07:19:49;14.43;;;6.13;;
26946;SDS011;14501;52.282;10.560;2023-11-21T07:22:15;11.40;;;4.88;;
26946;SDS011;14501;52.282;10.560;2023-11-21T07:24:47;10.27;;;5.18;;
26946;SDS011;14501;52.282;10.560;2023-11-21T07:27:15;12.63;;;5.38;;
26946;SDS011;14501;52.282;10.560;2023-11-21T07:29:42;10.38;;;5.03;;
26946;SDS011;14501;52.282;10.560;2023-11-21T07:32:07;9.65;;;4.80;;
26946;SDS011;14501;52.282;10.560;2023-11-21T07:34:34;12.52;;;6.18;;
26946;SDS011;14501;52.282;10.560;2023-11-21T07:37:01;8.73;;;5.18;;
26946;SDS011;14501;52.282;10.560;2023-11-21T07:39:26;10.68;;;5.80;;
26946;SDS011;14501;52.282;10.560;2023-11-21T07:41:52;11.02;;;4.22;;
26946;SDS011;14501;52.282;10.560;2023-11-21T07:44:18;11.82;;;4.93;;
26946;SDS011;14501;52.282;10.560;2023-11-21T07:46:44;9.75;;;5.22;;
26946;SDS011;14501;52.282;10.560;2023-11-21T07:49:10;7.97;;;4.88;;
26946;SDS011;14501;52.282;10.560;2023-11-21T07:51:36;8.43;;;4.30;;
26946;SDS011;14501;52.282;10.560;2023-11-21T07:54:01;9.98;;;4.65;;
26946;SDS011;14501;52.282;10.560;2023-11-21T07:56:27;9.35;;;4.60;;
26946;SDS011;14501;52.282;10.560;2023-11-21T07:58:53;12.20;;;5.45;;
26946;SDS011;14501;52.282;10.560;2023-11-21T08:01:19;12.43;;;4.85;;
26946;SDS011;14501;52.282;10.560;2023-11-21T08:03:44;11.35;;;5.35;;
26946;SDS011;14501;52.282;10.560;2023-11-21T08:06:10;10.85;;;5.20;;
26946;SDS011;14501;52.282;10.560;2023-11-21T08:08:37;13.90;;;5.80;;
26946;SDS011;14501;52.282;10.560;2023-11-21T08:11:02;10.00;;;5.53;;
26946;SDS011;14501;52.282;10.560;2023-11-21T08:13:29;12.35;;;5.22;;
26946;SDS011;14501;52.282;10.560;2023-11-21T08:15:57;15.32;;;6.30;;
26946;SDS011;14501;52.282;10.560;2023-11-21T08:18:27;14.30;;;6.00;;
26946;SDS011;14501;52.282;10.560;2023-11-21T08:20:54;11.60;;;6.00;;
26946;SDS011;14501;52.282;10.560;2023-11-21T08:23:20;10.30;;;6.03;;
26946;SDS011;14501;52.282;10.560;2023-11-21T08:25:50;14.48;;;6.10;;
26946;SDS011;14501;52.282;10.560;2023-11-21T08:28:16;15.45;;;6.53;;
26946;SDS011;14501;52.282;10.560;2023-11-21T08:30:41;12.65;;;7.07;;
26946;SDS011;14501;52.282;10.560;2023-11-21T08:33:07;13.10;;;6.45;;
26946;SDS011;14501;52.282;10.560;2023-11-21T08:35:37;12.52;;;6.25;;
26946;SDS011;14501;52.282;10.560;2023-11-21T08:38:03;9.65;;;5.30;;
26946;SDS011;14501;52.282;10.560;2023-11-21T08:40:29;11.05;;;5.53;;
26946;SDS011;14501;52.282;10.560;2023-11-21T08:42:55;13.05;;;6.05;;
26946;SDS011;14501;52.282;10.560;2023-11-21T08:45:24;11.73;;;6.35;;
26946;SDS011;14501;52.282;10.560;2023-11-21T08:47:50;10.35;;;5.40;;
26946;SDS011;14501;52.282;10.560;2023-11-21T08:50:16;10.02;;;5.82;;
26946;SDS011;14501;52.282;10.560;2023-11-21T08:52:42;8.88;;;5.22;;
26946;SDS011;14501;52.282;10.560;2023-11-21T08:55:10;12.27;;;5.30;;
26946;SDS011;14501;52.282;10.560;2023-11-21T08:57:38;7.65;;;4.38;;
26946;SDS011;14501;52.282;10.560;2023-11-21T09:00:05;11.05;;;5.00;;
26946;SDS011;14501;52.282;10.560;2023-11-21T09:02:35;9.30;;;4.90;;
26946;SDS011;14501;52.282;10.560;2023-11-21T09:05:02;9.00;;;4.72;;
26946;SDS011;14501;52.282;10.560;2023-11-21T09:07:31;7.65;;;4.60;;
26946;SDS011;14501;52.282;10.560;2023-11-21T09:09:57;6.82;;;3.60;;
26946;SDS011;14501;52.282;10.560;2023-11-21T09:12:22;7.15;;;4.25;;
26946;SDS011;14501;52.282;10.560;2023-11-21T09:14:49;6.18;;;3.72;;
26946;SDS011;14501;52.282;10.560;2023-11-21T09:17:15;7.38;;;3.67;;
26946;SDS011;14501;52.282;10.560;2023-11-21T09:19:41;6.35;;;4.03;;
26946;SDS011;14501;52.282;10.560;2023-11-21T09:22:10;7.38;;;3.70;;
26946;SDS011;14501;52.282;10.560;2023-11-21T09:24:35;5.65;;;2.80;;
26946;SDS011;14501;52.282;10.560;2023-11-21T09:27:02;6.07;;;3.88;;
26946;SDS011;14501;52.282;10.560;2023-11-21T09:29:28;6.18;;;3.60;;
26946;SDS011;14501;52.282;10.560;2023-11-21T09:31:54;5.07;;;3.45;;
26946;SDS011;14501;52.282;10.560;2023-11-21T09:34:23;4.55;;;3.20;;
26946;SDS011;14501;52.282;10.560;2023-11-21T09:36:48;4.93;;;2.88;;
26946;SDS011;14501;52.282;10.560;2023-11-21T09:39:14;5.78;;;3.55;;
26946;SDS011;14501;52.282;10.560;2023-11-21T09:41:44;5.28;;;3.42;;
26946;SDS011;14501;52.282;10.560;2023-11-21T09:44:17;3.88;;;2.78;;
26946;SDS011;14501;52.282;10.560;2023-11-21T09:46:44;5.78;;;3.40;;
26946;SDS011;14501;52.282;10.560;2023-11-21T09:49:14;6.50;;;3.35;;
26946;SDS011;14501;52.282;10.560;2023-11-21T09:51:42;6.45;;;3.88;;
26946;SDS011;14501;52.282;10.560;2023-11-21T09:54:09;5.13;;;3.45;;
26946;SDS011;14501;52.282;10.560;2023-11-21T09:56:37;5.18;;;3.78;;
26946;SDS011;14501;52.282;10.560;2023-11-21T09:59:03;5.38;;;3.13;;
26946;SDS011;14501;52.282;10.560;2023-11-21T10:01:32;4.63;;;3.03;;
26946;SDS011;14501;52.282;10.560;2023-11-21T10:03:59;7.43;;;3.53;;
26946;SDS011;14501;52.282;10.560;2023-11-21T10:06:26;5.93;;;3.60;;
26946;SDS011;14501;52.282;10.560;2023-11-21T10:08:52;6.80;;;3.78;;
26946;SDS011;14501;52.282;10.560;2023-11-21T10:11:19;5.38;;;3.70;;
26946;SDS011;14501;52.282;10.560;2023-11-21T10:13:46;8.20;;;3.55;;
26946;SDS011;14501;52.282;10.560;2023-11-21T10:16:14;5.70;;;3.20;;
26946;SDS011;14501;52.282;10.560;2023-11-21T10:18:43;5.38;;;3.47;;
26946;SDS011;14501;52.282;10.560;2023-11-21T10:21:11;5.95;;;3.60;;
26946;SDS011;14501;52.282;10.560;2023-11-21T10:23:36;4.57;;;3.08;;
26946;SDS011;14501;52.282;10.560;2023-11-21T10:26:02;4.70;;;3.65;;
26946;SDS011;14501;52.282;10.560;2023-11-21T10:28:29;4.35;;;2.75;;
26946;SDS011;14501;52.282;10.560;2023-11-21T10:30:54;5.65;;;3.67;;
26946;SDS011;14501;52.282;10.560;2023-11-21T10:33:27;4.30;;;3.30;;
26946;SDS011;14501;52.282;10.560;2023-11-21T10:35:57;8.15;;;3.45;;
26946;SDS011;14501;52.282;10.560;2023-11-21T10:38:24;5.80;;;3.58;;
26946;SDS011;14501;52.282;10.560;2023-11-21T10:40:52;5.28;;;3.97;;
26946;SDS011;14501;52.282;10.560;2023-11-21T10:43:19;8.05;;;3.97;;
26946;SDS011;14501;52.282;10.560;2023-11-21T10:45:49;4.63;;;3.22;;
26946;SDS011;14501;52.282;10.560;2023-11-21T10:48:15;7.57;;;3.45;;
26946;SDS011;14501;52.282;10.560;2023-11-21T10:50:41;6.30;;;3.25;;
26946;SDS011;14501;52.282;10.560;2023-11-21T10:53:07;5.53;;;3.15;;
26946;SDS011;14501;52.282;10.560;2023-11-21T10:55:33;6.88;;;3.13;;
26946;SDS011;14501;52.282;10.560;2023-11-21T10:58:00;4.93;;;3.28;;
26946;SDS011;14501;52.282;10.560;2023-11-21T11:00:28;4.63;;;3.05;;
26946;SDS011;14501;52.282;10.560;2023-11-21T11:02:54;4.38;;;3.10;;
26946;SDS011;14501;52.282;10.560;2023-11-21T11:05:22;6.82;;;3.63;;
26946;SDS011;14501;52.282;10.560;2023-11-21T11:07:52;3.15;;;2.83;;
26946;SDS011;14501;52.282;10.560;2023-11-21T11:10:26;5.10;;;3.25;;
26946;SDS011;14501;52.282;10.560;2023-11-21T11:12:55;3.85;;;2.88;;
26946;SDS011;14501;52.282;10.560;2023-11-21T11:15:23;5.80;;;3.47;;
26946;SDS011;14501;52.282;10.560;2023-11-21T11:17:49;5.18;;;3.30;;
26946;SDS011;14501;52.282;10.560;2023-11-21T11:20:16;6.20;;;3.30;;
26946;SDS011;14501;52.282;10.560;2023-11-21T11:28:07;7.70;;;3.65;;
26946;SDS011;14501;52.282;10.560;2023-11-21T11:30:50;7.40;;;3.72;;
26946;SDS011;14501;52.282;10.560;2023-11-21T11:33:26;5.50;;;3.33;;
26946;SDS011;14501;52.282;10.560;2023-11-21T11:36:06;3.80;;;3.40;;
26946;SDS011;14501;52.282;10.560;2023-11-21T11:38:51;6.55;;;3.35;;
26946;SDS011;14501;52.282;10.560;2023-11-21T11:41:27;5.97;;;2.90;;
26946;SDS011;14501;52.282;10.560;2023-11-21T11:43:57;5.63;;;3.65;;
26946;SDS011;14501;52.282;10.560;2023-11-21T11:46:43;5.80;;;3.00;;
26946;SDS011;14501;52.282;10.560;2023-11-21T11:49:23;3.33;;;2.90;;
26946;SDS011;14501;52.282;10.560;2023-11-21T11:54:57;4.20;;;2.63;;
26946;SDS011;14501;52.282;10.560;2023-11-21T11:57:24;5.28;;;2.78;;
26946;SDS011;14501;52.282;10.560;2023-11-21T12:02:42;4.43;;;3.10;;
26946;SDS011;14501;52.282;10.560;2023-11-21T12:05:14;3.67;;;2.38;;
26946;SDS011;14501;52.282;10.560;2023-11-21T12:07:48;3.15;;;2.22;;
26946;SDS011;14501;52.282;10.560;2023-11-21T12:12:44;5.97;;;3.05;;
26946;SDS011;14501;52.282;10.560;2023-11-21T12:15:11;4.97;;;2.50;;
26946;SDS011;14501;52.282;10.560;2023-11-21T12:17:38;4.60;;;3.05;;
26946;SDS011;14501;52.282;10.560;2023-11-21T12:20:04;4.65;;;2.70;;
26946;SDS011;14501;52.282;10.560;2023-11-21T12:22:41;3.35;;;2.20;;
26946;SDS011;14501;52.282;10.560;2023-11-21T12:25:12;2.88;;;2.50;;
26946;SDS011;14501;52.282;10.560;2023-11-21T12:27:43;4.22;;;2.20;;
26946;SDS011;14501;52.282;10.560;2023-11-21T12:30:10;3.10;;;2.30;;
26946;SDS011;14501;52.282;10.560;2023-11-21T12:32:42;3.90;;;2.40;;
26946;SDS011;14501;52.282;10.560;2023-11-21T12:35:12;5.15;;;2.90;;
26946;SDS011;14501;52.282;10.560;2023-11-21T12:37:38;4.60;;;2.88;;
26946;SDS011;14501;52.282;10.560;2023-11-21T12:40:05;4.47;;;2.63;;
26946;SDS011;14501;52.282;10.560;2023-11-21T12:42:33;3.63;;;2.30;;
26946;SDS011;14501;52.282;10.560;2023-11-21T12:47:43;3.92;;;2.47;;
26946;SDS011;14501;52.282;10.560;2023-11-21T12:50:14;3.55;;;2.20;;
26946;SDS011;14501;52.282;10.560;2023-11-21T12:52:46;4.15;;;2.67;;
26946;SDS011;14501;52.282;10.560;2023-11-21T12:55:16;2.17;;;1.98;;
26946;SDS011;14501;52.282;10.560;2023-11-21T12:57:47;3.15;;;2.13;;
26946;SDS011;14501;52.282;10.560;2023-11-21T13:00:17;3.03;;;2.10;;
26946;SDS011;14501;52.282;10.560;2023-11-21T13:02:55;2.20;;;1.83;;
26946;SDS011;14501;52.282;10.560;2023-11-21T13:05:23;3.60;;;2.08;;
26946;SDS011;14501;52.282;10.560;2023-11-21T13:07:53;3.33;;;2.00;;
26946;SDS011;14501;52.282;10.560;2023-11-21T13:10:26;2.72;;;2.38;;
26946;SDS011;14501;52.282;10.560;2023-11-21T13:12:56;3.38;;;2.03;;
26946;SDS011;14501;52.282;10.560;2023-11-21T13:15:28;2.63;;;2.10;;
26946;SDS011;14501;52.282;10.560;2023-11-21T13:17:56;3.92;;;2.00;;
26946;SDS011;14501;52.282;10.560;2023-11-21T13:20:23;2.33;;;1.85;;
26946;SDS011;14501;52.282;10.560;2023-11-21T13:22:50;5.90;;;2.75;;
26946;SDS011;14501;52.282;10.560;2023-11-21T13:25:27;3.88;;;2.28;;
26946;SDS011;14501;52.282;10.560;2023-11-21T13:27:57;6.15;;;4.00;;
26946;SDS011;14501;52.282;10.560;2023-11-21T13:30:26;3.38;;;2.47;;
26946;SDS011;14501;52.282;10.560;2023-11-21T13:32:58;3.33;;;2.20;;
26946;SDS011;14501;52.282;10.560;2023-11-21T13:35:30;2.67;;;1.98;;
26946;SDS011;14501;52.282;10.560;2023-11-21T13:38:04;3.38;;;1.98;;
26946;SDS011;14501;52.282;10.560;2023-11-21T13:40:31;2.70;;;2.10;;
26946;SDS011;14501;52.282;10.560;2023-11-21T13:42:59;3.05;;;2.10;;
26946;SDS011;14501;52.282;10.560;2023-11-21T13:45:29;2.15;;;1.67;;
26946;SDS011;14501;52.282;10.560;2023-11-21T13:47:56;4.28;;;2.55;;
26946;SDS011;14501;52.282;10.560;2023-11-21T13:50:26;1.90;;;1.60;;
26946;SDS011;14501;52.282;10.560;2023-11-21T13:52:58;3.72;;;1.77;;
26946;SDS011;14501;52.282;10.560;2023-11-21T13:55:33;5.18;;;2.13;;
26946;SDS011;14501;52.282;10.560;2023-11-21T13:58:00;3.92;;;2.15;;
26946;SDS011;14501;52.282;10.560;2023-11-21T14:00:28;4.75;;;2.60;;
26946;SDS011;14501;52.282;10.560;2023-11-21T14:03:09;2.72;;;1.90;;
26946;SDS011;14501;52.282;10.560;2023-11-21T14:05:44;3.38;;;2.15;;
26946;SDS011;14501;52.282;10.560;2023-11-21T14:08:12;3.22;;;2.20;;
26946;SDS011;14501;52.282;10.560;2023-11-21T14:10:41;3.13;;;2.15;;
26946;SDS011;14501;52.282;10.560;2023-11-21T14:13:15;2.67;;;2.20;;
26946;SDS011;14501;52.282;10.560;2023-11-21T14:15:44;2.30;;;1.88;;
26946;SDS011;14501;52.282;10.560;2023-11-21T14:18:15;2.05;;;1.83;;
26946;SDS011;14501;52.282;10.560;2023-11-21T14:20:42;2.85;;;2.33;;
26946;SDS011;14501;52.282;10.560;2023-11-21T14:23:09;2.55;;;1.70;;
26946;SDS011;14501;52.282;10.560;2023-11-21T14:25:35;2.80;;;2.05;;
26946;SDS011;14501;52.282;10.560;2023-11-21T14:28:02;3.80;;;2.10;;
26946;SDS011;14501;52.282;10.560;2023-11-21T14:30:31;3.90;;;1.98;;
26946;SDS011;14501;52.282;10.560;2023-11-21T14:32:58;2.78;;;2.00;;
26946;SDS011;14501;52.282;10.560;2023-11-21T14:35:24;3.10;;;2.08;;
26946;SDS011;14501;52.282;10.560;2023-11-21T14:37:49;2.60;;;2.05;;
26946;SDS011;14501;52.282;10.560;2023-11-21T14:40:16;3.03;;;1.95;;
26946;SDS011;14501;52.282;10.560;2023-11-21T14:42:42;4.32;;;2.15;;
26946;SDS011;14501;52.282;10.560;2023-11-21T14:45:12;2.33;;;1.77;;